createdAt,value
2022-09-13T00:00:17.611Z,17.7
2022-09-13T00:01:17.527Z,17.8
2022-09-13T00:02:17.471Z,17.7
2022-09-13T00:03:17.405Z,17.8
2022-09-13T00:04:17.438Z,17.7
2022-09-13T00:05:17.450Z,17.7
2022-09-13T00:06:24.529Z,17.8
2022-09-13T00:07:17.565Z,17.8
2022-09-13T00:08:23.954Z,17.7
2022-09-13T00:10:06.177Z,17.7
2022-09-13T00:11:06.705Z,17.7
2022-09-13T00:11:17.611Z,17.8
2022-09-13T00:13:52.459Z,17.8
2022-09-13T00:14:17.706Z,17.6
2022-09-13T00:15:17.997Z,17.6
2022-09-13T00:16:18.090Z,17.4
2022-09-13T00:17:17.800Z,17.4
2022-09-13T00:18:17.843Z,17.4
2022-09-13T00:19:17.891Z,17.3
2022-09-13T00:20:17.918Z,17.3
2022-09-13T00:21:17.943Z,17.4
2022-09-13T00:22:22.999Z,17.6
2022-09-13T00:23:18.008Z,17.7
2022-09-13T00:24:18.062Z,17.8
2022-09-13T00:25:18.451Z,17.8
2022-09-13T00:26:18.412Z,17.6
2022-09-13T00:27:18.131Z,17.7
2022-09-13T00:28:18.176Z,17.8
2022-09-13T00:29:18.450Z,17.8
2022-09-13T00:30:18.249Z,17.8
2022-09-13T00:31:18.318Z,17.8
2022-09-13T00:32:18.293Z,17.7
2022-09-13T00:33:18.332Z,17.6
2022-09-13T00:34:18.359Z,17.7
2022-09-13T00:35:18.410Z,17.7
2022-09-13T00:36:18.689Z,17.6
2022-09-13T00:37:18.789Z,17.7
2022-09-13T00:38:18.741Z,17.6
2022-09-13T00:39:18.645Z,17.5
2022-09-13T00:40:18.756Z,17.6
2022-09-13T00:41:18.831Z,17.7
2022-09-13T00:42:18.877Z,17.7
2022-09-13T00:43:19.051Z,17.8
2022-09-13T00:44:19.378Z,17.8
2022-09-13T00:45:19.328Z,17.8
2022-09-13T00:46:19.240Z,17.7
2022-09-13T00:47:19.392Z,17.7
2022-09-13T00:48:20.675Z,17.6
2022-09-13T00:49:20.215Z,17.6
2022-09-13T00:50:19.505Z,17.7
2022-09-13T00:51:19.395Z,17.8
2022-09-13T00:52:19.515Z,17.8
2022-09-13T00:53:19.535Z,17.9
2022-09-13T00:54:19.584Z,17.9
2022-09-13T00:55:19.880Z,17.9
2022-09-13T00:56:19.882Z,17.9
2022-09-13T00:57:19.748Z,17.8
2022-09-13T00:58:19.804Z,17.8
2022-09-13T00:59:19.809Z,17.8
2022-09-13T01:00:19.860Z,17.7
2022-09-13T01:01:19.934Z,17.6
2022-09-13T01:02:20.000Z,17.6
2022-09-13T01:03:20.095Z,17.6
2022-09-13T01:04:19.958Z,17.4
2022-09-13T01:05:19.991Z,17.4
2022-09-13T01:06:20.159Z,17.4
2022-09-13T01:07:20.057Z,17.4
2022-09-13T01:08:20.134Z,17.3
2022-09-13T01:09:20.408Z,17.3
2022-09-13T01:10:20.186Z,17.3
2022-09-13T01:11:20.213Z,17.5
2022-09-13T01:12:20.754Z,17.5
2022-09-13T01:13:20.303Z,17.6
2022-09-13T01:14:20.293Z,17.6
2022-09-13T01:15:20.339Z,17.6
2022-09-13T01:16:20.414Z,17.6
2022-09-13T01:17:20.419Z,17.7
2022-09-13T01:18:20.433Z,17.7
2022-09-13T01:19:20.485Z,17.7
2022-09-13T01:20:20.545Z,17.7
2022-09-13T01:21:20.547Z,17.7
2022-09-13T01:22:20.569Z,17.4
2022-09-13T01:23:20.592Z,17.4
2022-09-13T01:24:20.599Z,17.4
2022-09-13T01:25:20.988Z,17.4
2022-09-13T01:26:20.829Z,17.5
2022-09-13T01:27:20.723Z,17.5
2022-09-13T01:28:20.978Z,17.5
2022-09-13T01:29:21.177Z,17.4
2022-09-13T01:30:20.841Z,17.5
2022-09-13T01:31:20.969Z,17.5
2022-09-13T01:32:21.164Z,17.5
2022-09-13T01:33:20.934Z,17.4
2022-09-13T01:34:21.126Z,17.3
2022-09-13T01:35:21.165Z,17.4
2022-09-13T01:36:26.006Z,17.3
2022-09-13T01:37:21.207Z,17.3
2022-09-13T01:38:26.059Z,17.3
2022-09-13T01:39:21.481Z,17.3
2022-09-13T01:40:21.240Z,17.4
2022-09-13T01:41:21.151Z,17.3
2022-09-13T01:42:21.168Z,17.3
2022-09-13T01:43:21.189Z,17.3
2022-09-13T01:44:21.290Z,17.2
2022-09-13T01:45:21.291Z,17.2
2022-09-13T01:46:21.302Z,17.3
2022-09-13T01:47:21.379Z,17.3
2022-09-13T01:48:21.865Z,17.4
2022-09-13T01:49:21.402Z,17.2
2022-09-13T01:50:21.739Z,17.2
2022-09-13T01:51:21.779Z,17.3
2022-09-13T01:52:21.983Z,17.3
2022-09-13T01:53:21.734Z,17.3
2022-09-13T01:54:21.797Z,17.2
2022-09-13T01:55:22.012Z,17.3
2022-09-13T01:56:21.955Z,17.4
2022-09-13T01:57:22.043Z,17.4
2022-09-13T01:58:22.098Z,17.4
2022-09-13T01:59:22.151Z,17.4
2022-09-13T02:00:22.239Z,17.4
2022-09-13T02:01:22.470Z,17.4
2022-09-13T02:02:22.313Z,17.5
2022-09-13T02:03:22.508Z,17.5
2022-09-13T02:04:23.030Z,17.5
2022-09-13T02:05:27.625Z,17.4
2022-09-13T02:06:22.648Z,17.4
2022-09-13T02:07:22.951Z,17.4
2022-09-13T02:08:22.897Z,17.4
2022-09-13T02:09:23.174Z,17.2
2022-09-13T02:10:22.885Z,17.2
2022-09-13T02:11:28.079Z,17.1
2022-09-13T02:12:22.841Z,17.3
2022-09-13T02:13:23.154Z,17.3
2022-09-13T02:14:23.075Z,17.3
2022-09-13T02:15:23.125Z,17.3
2022-09-13T02:16:27.969Z,17.4
2022-09-13T02:17:22.987Z,17.3
2022-09-13T02:18:23.043Z,17.3
2022-09-13T02:19:23.035Z,17.3
2022-09-13T02:20:23.085Z,17.2
2022-09-13T02:21:23.306Z,17.1
2022-09-13T02:22:23.197Z,17.2
2022-09-13T02:23:23.279Z,17.4
2022-09-13T02:24:23.266Z,17.5
2022-09-13T02:25:23.280Z,17.5
2022-09-13T02:26:23.827Z,17.5
2022-09-13T02:27:24.436Z,17.4
2022-09-13T02:28:23.392Z,17.4
2022-09-13T02:29:23.456Z,17.3
2022-09-13T02:30:23.964Z,17.3
2022-09-13T02:31:25.232Z,17.3
2022-09-13T02:32:26.317Z,17.4
2022-09-13T02:33:23.584Z,17.4
2022-09-13T02:34:23.775Z,17.4
2022-09-13T02:35:23.916Z,17.4
2022-09-13T02:36:23.843Z,17.4
2022-09-13T02:37:23.651Z,17.4
2022-09-13T02:38:24.039Z,17.4
2022-09-13T02:39:23.771Z,17.4
2022-09-13T02:40:23.770Z,17.3
2022-09-13T02:41:23.791Z,17.4
2022-09-13T02:42:23.920Z,17.4
2022-09-13T02:43:24.188Z,17.4
2022-09-13T02:44:25.835Z,17.5
2022-09-13T02:45:39.818Z,17.4
2022-09-13T02:46:30.145Z,17.4
2022-09-13T02:47:24.013Z,17.4
2022-09-13T02:48:24.232Z,17.4
2022-09-13T02:49:24.180Z,17.4
2022-09-13T02:50:29.607Z,17.4
2022-09-13T02:51:25.001Z,17.3
2022-09-13T02:52:24.174Z,17.2
2022-09-13T02:53:24.547Z,17.3
2022-09-13T02:54:24.477Z,17.3
2022-09-13T02:55:24.321Z,17.3
2022-09-13T02:56:24.242Z,17.3
2022-09-13T02:57:24.525Z,17.3
2022-09-13T02:58:27.099Z,17.3
2022-09-13T02:59:24.343Z,17.3
2022-09-13T03:00:24.529Z,17.4
2022-09-13T03:01:24.488Z,17.4
2022-09-13T03:02:24.905Z,17.4
2022-09-13T03:03:24.633Z,17.4
2022-09-13T03:04:24.736Z,17.4
2022-09-13T03:05:25.126Z,17.4
2022-09-13T03:06:25.087Z,17.3
2022-09-13T03:07:24.962Z,17.4
2022-09-13T03:08:25.108Z,17.4
2022-09-13T03:09:25.086Z,17.5
2022-09-13T03:10:25.159Z,17.5
2022-09-13T03:11:25.191Z,17.5
2022-09-13T03:12:25.434Z,17.5
2022-09-13T03:13:25.320Z,17.5
2022-09-13T03:14:25.381Z,17.4
2022-09-13T03:15:25.437Z,17.4
2022-09-13T03:16:25.491Z,17.4
2022-09-13T03:17:25.540Z,17.3
2022-09-13T03:18:25.737Z,17.3
2022-09-13T03:19:25.596Z,17.4
2022-09-13T03:20:25.678Z,17.5
2022-09-13T03:21:25.670Z,17.4
2022-09-13T03:22:25.837Z,17.3
2022-09-13T03:23:25.735Z,17.4
2022-09-13T03:24:25.771Z,17.4
2022-09-13T03:25:25.794Z,17.4
2022-09-13T03:26:25.951Z,17.3
2022-09-13T03:27:25.942Z,17.3
2022-09-13T03:28:26.117Z,17.4
2022-09-13T03:29:26.123Z,17.4
2022-09-13T03:30:26.150Z,17.4
2022-09-13T03:31:26.098Z,17.4
2022-09-13T03:32:26.069Z,17.4
2022-09-13T03:33:26.330Z,17.4
2022-09-13T03:34:26.196Z,17.3
2022-09-13T03:35:31.237Z,17.3
2022-09-13T03:36:26.444Z,17.3
2022-09-13T03:37:26.256Z,17.3
2022-09-13T03:38:26.747Z,17.3
2022-09-13T03:39:26.409Z,17.2
2022-09-13T03:40:26.329Z,17
2022-09-13T03:41:26.370Z,16.9
2022-09-13T03:42:26.400Z,17
2022-09-13T03:43:26.453Z,17.1
2022-09-13T03:44:26.499Z,17.1
2022-09-13T03:45:26.803Z,17
2022-09-13T03:46:26.741Z,16.7
2022-09-13T03:47:26.933Z,16.7
2022-09-13T03:48:26.568Z,16.9
2022-09-13T03:49:26.627Z,17
2022-09-13T03:50:26.699Z,17.1
2022-09-13T03:51:26.990Z,17.1
2022-09-13T03:52:26.781Z,17
2022-09-13T03:53:26.970Z,16.8
2022-09-13T03:54:26.813Z,16.7
2022-09-13T03:55:27.136Z,16.8
2022-09-13T03:56:26.873Z,16.6
2022-09-13T03:57:26.905Z,16.5
2022-09-13T03:58:26.966Z,16.5
2022-09-13T03:59:26.918Z,16.6
2022-09-13T04:00:26.965Z,16.6
2022-09-13T04:01:28.056Z,16.7
2022-09-13T04:02:27.351Z,16.9
2022-09-13T04:03:27.339Z,17
2022-09-13T04:04:27.350Z,17
2022-09-13T04:05:27.133Z,16.9
2022-09-13T04:06:27.199Z,16.8
2022-09-13T04:07:27.240Z,16.8
2022-09-13T04:08:27.274Z,16.9
2022-09-13T04:09:27.257Z,16.9
2022-09-13T04:10:27.456Z,16.9
2022-09-13T04:11:27.357Z,16.6
2022-09-13T04:12:27.704Z,16.5
2022-09-13T04:13:27.738Z,16.6
2022-09-13T04:14:27.641Z,16.6
2022-09-13T04:15:27.761Z,16.6
2022-09-13T04:16:28.006Z,16.6
2022-09-13T04:17:27.740Z,16.5
2022-09-13T04:18:27.822Z,16.6
2022-09-13T04:19:27.923Z,16.6
2022-09-13T04:20:28.453Z,16.7
2022-09-13T04:21:28.355Z,16.7
2022-09-13T04:22:28.051Z,16.8
2022-09-13T04:24:00.072Z,16.8
2022-09-13T04:24:28.403Z,16.7
2022-09-13T04:25:28.245Z,16.6
2022-09-13T04:26:28.420Z,16.6
2022-09-13T04:27:28.338Z,16.4
2022-09-13T04:28:28.440Z,16.4
2022-09-13T04:29:28.585Z,16.6
2022-09-13T04:31:37.634Z,16.7
2022-09-13T04:31:45.338Z,16.8
2022-09-13T04:32:28.695Z,16.8
2022-09-13T04:33:28.823Z,16.7
2022-09-13T04:34:28.678Z,16.8
2022-09-13T04:35:28.730Z,16.8
2022-09-13T04:36:28.990Z,16.7
2022-09-13T04:37:29.199Z,16.9
2022-09-13T04:38:29.020Z,16.9
2022-09-13T04:39:29.121Z,16.7
2022-09-13T04:40:28.929Z,16.8
2022-09-13T04:41:28.935Z,16.9
2022-09-13T04:42:29.373Z,16.9
2022-09-13T04:43:31.754Z,16.8
2022-09-13T04:44:29.135Z,16.8
2022-09-13T04:45:29.144Z,16.8
2022-09-13T04:46:29.370Z,16.8
2022-09-13T04:47:34.193Z,16.8
2022-09-13T04:48:34.163Z,16.8
2022-09-13T04:49:31.870Z,16.7
2022-09-13T04:50:34.270Z,16.7
2022-09-13T04:51:36.765Z,16.7
2022-09-13T04:52:29.433Z,16.7
2022-09-13T04:53:52.687Z,16.7
2022-09-13T04:54:29.467Z,16.6
2022-09-13T04:55:29.677Z,16.7
2022-09-13T04:56:29.757Z,16.6
2022-09-13T04:57:47.905Z,16.6
2022-09-13T04:58:44.810Z,16.7
2022-09-13T04:59:48.535Z,16.7
2022-09-13T05:00:30.774Z,16.7
2022-09-13T05:01:56.026Z,16.6
2022-09-13T05:02:32.649Z,16.7
2022-09-13T05:03:35.633Z,16.7
2022-09-13T05:04:31.983Z,16.7
2022-09-13T05:05:47.018Z,16.8
2022-09-13T05:06:39.806Z,16.6
2022-09-13T05:07:53.661Z,16.6
2022-09-13T05:08:29.972Z,16.6
2022-09-13T05:09:30.149Z,16.7
2022-09-13T05:10:51.082Z,16.7
2022-09-13T05:11:42.232Z,16.6
2022-09-13T05:12:29.943Z,16.6
2022-09-13T05:14:00.010Z,16.7
2022-09-13T05:14:30.095Z,16.7
2022-09-13T05:15:35.063Z,16.8
2022-09-13T05:16:45.499Z,16.8
2022-09-13T05:17:32.078Z,16.7
2022-09-13T05:18:30.202Z,16.6
2022-09-13T05:19:59.258Z,16.6
2022-09-13T05:20:30.209Z,16.6
2022-09-13T05:21:35.135Z,16.6
2022-09-13T05:22:58.580Z,16.6
2022-09-13T05:24:07.214Z,16.6
2022-09-13T05:24:30.429Z,16.6
2022-09-13T05:25:38.891Z,16.7
2022-09-13T05:26:30.616Z,16.6
2022-09-13T05:27:30.627Z,16.7
2022-09-13T05:28:31.710Z,16.7
2022-09-13T05:29:30.924Z,16.6
2022-09-13T05:30:31.188Z,16.6
2022-09-13T05:31:33.060Z,16.6
2022-09-13T05:32:36.311Z,16.6
2022-09-13T05:33:31.326Z,16.6
2022-09-13T05:34:31.492Z,16.6
2022-09-13T05:35:31.144Z,16.5
2022-09-13T05:36:31.226Z,16.5
2022-09-13T05:37:36.826Z,16.5
2022-09-13T05:38:31.326Z,16.5
2022-09-13T05:39:43.850Z,16.5
2022-09-13T05:40:31.772Z,16.6
2022-09-13T05:41:31.487Z,16.6
2022-09-13T05:42:31.598Z,16.5
2022-09-13T05:43:33.145Z,16.6
2022-09-13T05:44:34.680Z,16.5
2022-09-13T05:45:35.388Z,16.5
2022-09-13T05:46:34.176Z,16.5
2022-09-13T05:47:33.974Z,16.4
2022-09-13T05:48:34.067Z,16.5
2022-09-13T05:49:39.003Z,16.5
2022-09-13T05:50:57.122Z,16.5
2022-09-13T05:51:34.316Z,16.5
2022-09-13T05:52:34.173Z,16.6
2022-09-13T05:53:55.297Z,16.5
2022-09-13T05:54:34.289Z,16.6
2022-09-13T05:55:34.315Z,16.6
2022-09-13T05:56:34.329Z,16.6
2022-09-13T05:57:34.387Z,16.6
2022-09-13T05:58:34.384Z,16.6
2022-09-13T05:59:34.428Z,16.6
2022-09-13T06:00:34.757Z,16.5
2022-09-13T06:01:34.637Z,16.6
2022-09-13T06:02:34.808Z,16.6
2022-09-13T06:03:34.779Z,16.5
2022-09-13T06:04:34.686Z,16.5
2022-09-13T06:05:34.892Z,16.5
2022-09-13T06:06:34.689Z,16.5
2022-09-13T06:07:54.897Z,16.5
2022-09-13T06:08:37.635Z,16.5
2022-09-13T06:09:35.500Z,16.5
2022-09-13T06:10:34.830Z,16.4
2022-09-13T06:11:34.842Z,16.4
2022-09-13T06:12:34.912Z,16.5
2022-09-13T06:13:36.994Z,16.5
2022-09-13T06:14:35.011Z,16.5
2022-09-13T06:15:35.120Z,16.6
2022-09-13T06:16:35.094Z,16.7
2022-09-13T06:17:35.059Z,16.6
2022-09-13T06:18:35.115Z,16.7
2022-09-13T06:19:35.114Z,16.7
2022-09-13T06:20:35.148Z,16.7
2022-09-13T06:21:35.156Z,16.8
2022-09-13T06:22:35.214Z,16.8
2022-09-13T06:23:35.329Z,16.8
2022-09-13T06:24:35.797Z,16.8
2022-09-13T06:25:35.466Z,16.8
2022-09-13T06:26:35.599Z,16.8
2022-09-13T06:27:35.384Z,16.8
2022-09-13T06:28:37.371Z,16.8
2022-09-13T06:29:35.559Z,16.8
2022-09-13T06:30:35.455Z,16.8
2022-09-13T06:31:35.564Z,16.9
2022-09-13T06:32:35.639Z,16.8
2022-09-13T06:33:35.576Z,16.8
2022-09-13T06:34:35.613Z,16.8
2022-09-13T06:35:35.673Z,16.8
2022-09-13T06:36:35.751Z,16.8
2022-09-13T06:37:35.836Z,16.9
2022-09-13T06:38:35.919Z,16.9
2022-09-13T06:39:36.261Z,16.9
2022-09-13T06:40:36.135Z,17
2022-09-13T06:41:36.114Z,17
2022-09-13T06:42:36.177Z,17
2022-09-13T06:43:36.263Z,17
2022-09-13T06:44:36.333Z,17
2022-09-13T06:45:36.446Z,17
2022-09-13T06:46:36.451Z,17
2022-09-13T06:47:36.577Z,16.9
2022-09-13T06:48:36.604Z,17
2022-09-13T06:49:36.694Z,17.1
2022-09-13T06:50:36.861Z,17.1
2022-09-13T06:51:36.770Z,17.2
2022-09-13T06:52:36.861Z,17.2
2022-09-13T06:53:45.292Z,17.2
2022-09-13T06:54:36.966Z,17.3
2022-09-13T06:55:37.313Z,17.2
2022-09-13T06:56:37.046Z,17.2
2022-09-13T06:57:37.288Z,17.3
2022-09-13T06:58:37.063Z,17.3
2022-09-13T06:59:37.104Z,17.3
2022-09-13T07:00:37.187Z,17.3
2022-09-13T07:01:37.478Z,17.2
2022-09-13T07:02:37.218Z,17.3
2022-09-13T07:03:37.360Z,17.2
2022-09-13T07:04:37.283Z,17.2
2022-09-13T07:05:37.319Z,17.2
2022-09-13T07:06:54.125Z,17.2
2022-09-13T07:07:38.255Z,17.2
2022-09-13T07:08:37.701Z,17.2
2022-09-13T07:09:37.694Z,17.2
2022-09-13T07:10:37.496Z,17.2
2022-09-13T07:11:37.878Z,17.2
2022-09-13T07:12:37.583Z,17.2
2022-09-13T07:13:42.918Z,17.2
2022-09-13T07:14:37.642Z,17.2
2022-09-13T07:15:38.040Z,17.2
2022-09-13T07:16:37.768Z,17.3
2022-09-13T07:17:37.847Z,17.3
2022-09-13T07:18:37.891Z,17.3
2022-09-13T07:19:37.812Z,17.4
2022-09-13T07:20:38.020Z,17.4
2022-09-13T07:21:37.843Z,17.3
2022-09-13T07:22:37.980Z,17.4
2022-09-13T07:23:37.907Z,17.4
2022-09-13T07:24:38.147Z,17.5
2022-09-13T07:25:37.971Z,17.5
2022-09-13T07:26:38.399Z,17.5
2022-09-13T07:27:38.631Z,17.5
2022-09-13T07:28:38.286Z,17.6
2022-09-13T07:29:38.385Z,17.6
2022-09-13T07:30:38.161Z,17.6
2022-09-13T07:31:38.247Z,17.6
2022-09-13T07:32:38.207Z,17.6
2022-09-13T07:33:38.288Z,17.7
2022-09-13T07:34:38.280Z,17.7
2022-09-13T07:35:38.528Z,17.7
2022-09-13T07:36:38.347Z,17.8
2022-09-13T07:37:38.387Z,17.8
2022-09-13T07:38:38.473Z,17.9
2022-09-13T07:39:39.726Z,17.9
2022-09-13T07:40:38.630Z,18
2022-09-13T07:41:38.551Z,18
2022-09-13T07:42:38.519Z,18
2022-09-13T07:43:38.638Z,18
2022-09-13T07:44:39.950Z,18
2022-09-13T07:45:38.657Z,18
2022-09-13T07:46:38.717Z,18.1
2022-09-13T07:47:38.742Z,18.2
2022-09-13T07:48:38.783Z,18.2
2022-09-13T07:49:39.081Z,18.2
2022-09-13T07:50:39.177Z,18.2
2022-09-13T07:51:39.063Z,18.3
2022-09-13T07:52:39.325Z,18.3
2022-09-13T07:53:39.273Z,18.4
2022-09-13T07:54:39.238Z,18.4
2022-09-13T07:55:39.291Z,18.4
2022-09-13T07:56:39.332Z,18.4
2022-09-13T07:57:39.378Z,18.5
2022-09-13T07:58:39.454Z,18.5
2022-09-13T07:59:39.520Z,18.6
2022-09-13T08:00:39.938Z,18.6
2022-09-13T08:01:39.892Z,18.6
2022-09-13T08:02:39.704Z,18.7
2022-09-13T08:03:39.875Z,18.7
2022-09-13T08:04:40.069Z,18.8
2022-09-13T08:05:39.837Z,18.7
2022-09-13T08:06:40.051Z,18.7
2022-09-13T08:07:39.798Z,18.6
2022-09-13T08:08:39.851Z,18.7
2022-09-13T08:09:40.077Z,18.7
2022-09-13T08:10:39.928Z,18.7
2022-09-13T08:11:40.058Z,18.7
2022-09-13T08:12:39.992Z,18.8
2022-09-13T08:13:40.019Z,18.8
2022-09-13T08:14:40.085Z,18.8
2022-09-13T08:15:40.177Z,19
2022-09-13T08:16:40.140Z,19
2022-09-13T08:17:40.205Z,19
2022-09-13T08:18:40.216Z,19.1
2022-09-13T08:19:40.227Z,19.2
2022-09-13T08:20:40.292Z,19.2
2022-09-13T08:21:40.324Z,19.1
2022-09-13T08:22:40.355Z,19.2
2022-09-13T08:23:40.391Z,19.3
2022-09-13T08:24:40.493Z,19.4
2022-09-13T08:25:40.434Z,19.4
2022-09-13T08:26:40.517Z,19.5
2022-09-13T08:27:40.673Z,19.5
2022-09-13T08:28:40.726Z,19.6
2022-09-13T08:29:40.552Z,19.6
2022-09-13T08:30:40.931Z,19.6
2022-09-13T08:31:40.654Z,19.6
2022-09-13T08:32:40.631Z,19.7
2022-09-13T08:33:44.264Z,19.7
2022-09-13T08:34:40.738Z,19.8
2022-09-13T08:35:40.791Z,19.8
2022-09-13T08:36:40.842Z,19.8
2022-09-13T08:37:40.846Z,19.9
2022-09-13T08:38:45.687Z,20
2022-09-13T08:39:41.196Z,19.8
2022-09-13T08:40:40.884Z,19.8
2022-09-13T08:41:40.899Z,20.1
2022-09-13T08:42:41.010Z,20.3
2022-09-13T08:44:01.196Z,20.3
2022-09-13T08:44:41.016Z,20.4
2022-09-13T08:45:41.083Z,20.3
2022-09-13T08:46:41.113Z,20.3
2022-09-13T08:47:41.126Z,20.4
2022-09-13T08:48:41.138Z,20.4
2022-09-13T08:49:41.928Z,20.5
2022-09-13T08:50:41.277Z,20.6
2022-09-13T08:51:41.241Z,20.7
2022-09-13T08:54:37.356Z,20.7
2022-09-13T08:54:44.242Z,20.7
2022-09-13T08:55:41.377Z,20.5
2022-09-13T08:56:41.417Z,20.5
2022-09-13T08:57:41.454Z,20.7
2022-09-13T08:58:41.766Z,20.7
2022-09-13T08:59:41.603Z,20.8
2022-09-13T09:00:41.637Z,20.8
2022-09-13T09:01:41.866Z,20.9
2022-09-13T09:02:41.876Z,20.9
2022-09-13T09:03:41.821Z,20.9
2022-09-13T09:04:42.155Z,21.2
2022-09-13T09:05:41.986Z,21
2022-09-13T09:06:42.055Z,21
2022-09-13T09:07:42.142Z,21
2022-09-13T09:08:42.671Z,20.9
2022-09-13T09:09:42.233Z,21
2022-09-13T09:10:42.617Z,21.1
2022-09-13T09:11:47.497Z,21.1
2022-09-13T09:12:42.954Z,21.1
2022-09-13T09:13:42.510Z,21.1
2022-09-13T09:14:42.629Z,21.1
2022-09-13T09:15:42.840Z,21
2022-09-13T09:16:42.710Z,21
2022-09-13T09:17:43.063Z,21.1
2022-09-13T09:18:44.317Z,21.2
2022-09-13T09:19:48.366Z,21.3
2022-09-13T09:20:42.779Z,21.3
2022-09-13T09:21:42.868Z,21.3
2022-09-13T09:22:43.130Z,21.3
2022-09-13T09:24:07.385Z,21.3
2022-09-13T09:24:42.977Z,21.4
2022-09-13T09:25:43.421Z,21.6
2022-09-13T09:26:42.969Z,21.8
2022-09-13T09:27:43.314Z,21.9
2022-09-13T09:28:43.301Z,21.9
2022-09-13T09:29:43.100Z,21.9
2022-09-13T09:30:43.208Z,21.7
2022-09-13T09:31:43.159Z,21.8
2022-09-13T09:32:43.203Z,21.8
2022-09-13T09:33:43.257Z,21.9
2022-09-13T09:34:43.269Z,22.1
2022-09-13T09:35:43.346Z,22.3
2022-09-13T09:36:43.440Z,22.4
2022-09-13T09:37:43.399Z,22.5
2022-09-13T09:38:43.391Z,22.1
2022-09-13T09:39:43.459Z,22.2
2022-09-13T09:40:43.485Z,22.4
2022-09-13T09:41:43.593Z,22.6
2022-09-13T09:42:43.553Z,22.6
2022-09-13T09:43:43.591Z,22.7
2022-09-13T09:44:43.782Z,22.8
2022-09-13T09:45:43.655Z,22.9
2022-09-13T09:46:43.745Z,22.8
2022-09-13T09:47:43.805Z,22.9
2022-09-13T09:48:43.877Z,23.1
2022-09-13T09:49:44.674Z,22.9
2022-09-13T09:50:43.805Z,22.9
2022-09-13T09:51:44.109Z,22.6
2022-09-13T09:52:44.098Z,22.7
2022-09-13T09:54:07.497Z,22.8
2022-09-13T09:54:43.890Z,22.8
2022-09-13T09:55:44.130Z,22.8
2022-09-13T09:56:43.966Z,22.6
2022-09-13T09:57:44.353Z,22.7
2022-09-13T09:58:44.034Z,23.1
2022-09-13T09:59:44.083Z,23.3
2022-09-13T10:00:44.128Z,23.6
2022-09-13T10:01:44.306Z,23.3
2022-09-13T10:02:44.265Z,23.4
2022-09-13T10:03:44.221Z,23.5
2022-09-13T10:04:44.349Z,23.5
2022-09-13T10:05:44.299Z,23.3
2022-09-13T10:06:44.341Z,23.5
2022-09-13T10:07:44.307Z,23.3
2022-09-13T10:08:44.340Z,23.1
2022-09-13T10:09:44.394Z,23
2022-09-13T10:10:44.594Z,23.3
2022-09-13T10:11:44.525Z,23.5
2022-09-13T10:12:44.581Z,23.5
2022-09-13T10:13:44.683Z,23.7
2022-09-13T10:14:44.743Z,23.5
2022-09-13T10:15:44.861Z,23.5
2022-09-13T10:16:44.852Z,23.6
2022-09-13T10:19:45.331Z,23.3
2022-09-13T10:20:45.091Z,23.5
2022-09-13T10:21:45.142Z,23.6
2022-09-13T10:22:45.301Z,23.7
2022-09-13T10:24:08.881Z,23.8
2022-09-13T10:24:45.283Z,23.8
2022-09-13T10:25:47.925Z,23.8
2022-09-13T10:26:45.548Z,24
2022-09-13T10:27:45.504Z,24.1
2022-09-13T10:28:45.695Z,24
2022-09-13T10:29:45.954Z,24.1
2022-09-13T10:30:45.624Z,24.1
2022-09-13T10:31:45.545Z,24.1
2022-09-13T10:32:45.903Z,23.7
2022-09-13T10:33:45.617Z,23.7
2022-09-13T10:34:45.660Z,23.7
2022-09-13T10:35:45.697Z,23.5
2022-09-13T10:36:52.405Z,23.6
2022-09-13T10:37:45.757Z,23.7
2022-09-13T10:38:46.273Z,23.8
2022-09-13T10:39:46.664Z,23.9
2022-09-13T10:40:45.896Z,23.8
2022-09-13T10:41:45.982Z,23.8
2022-09-13T10:42:46.220Z,23.7
2022-09-13T10:43:46.056Z,23.7
2022-09-13T10:44:46.021Z,23.9
2022-09-13T10:45:46.141Z,23.8
2022-09-13T10:46:46.060Z,23.7
2022-09-13T10:47:46.110Z,23.6
2022-09-13T10:48:47.227Z,23.6
2022-09-13T10:49:46.410Z,23.6
2022-09-13T10:50:46.523Z,23.7
2022-09-13T10:51:46.268Z,23.9
2022-09-13T10:52:46.279Z,23.8
2022-09-13T10:53:46.379Z,23.9
2022-09-13T10:54:46.362Z,23.7
2022-09-13T10:55:46.449Z,23.7
2022-09-13T10:56:46.429Z,23.8
2022-09-13T10:57:46.473Z,23.7
2022-09-13T10:58:46.608Z,23.7
2022-09-13T10:59:46.957Z,23.5
2022-09-13T11:00:46.619Z,23.5
2022-09-13T11:01:46.782Z,23.6
2022-09-13T11:02:46.650Z,23.6
2022-09-13T11:03:51.712Z,23.6
2022-09-13T11:04:46.740Z,23.6
2022-09-13T11:05:46.801Z,23.6
2022-09-13T11:06:47.157Z,23.6
2022-09-13T11:11:29.976Z,23.4
2022-09-13T11:11:46.992Z,23.5
2022-09-13T11:12:47.043Z,23.7
2022-09-13T11:13:47.128Z,23.8
2022-09-13T11:14:48.430Z,23.8
2022-09-13T11:15:47.184Z,23.9
2022-09-13T11:16:47.241Z,23.9
2022-09-13T11:17:47.238Z,23.8
2022-09-13T11:18:47.246Z,23.6
2022-09-13T11:19:47.255Z,23.7
2022-09-13T11:20:47.303Z,23.6
2022-09-13T11:21:52.371Z,23.6
2022-09-13T11:22:47.573Z,23.8
2022-09-13T11:23:47.755Z,23.8
2022-09-13T11:24:47.861Z,23.8
2022-09-13T11:25:48.214Z,23.8
2022-09-13T11:26:48.041Z,23.8
2022-09-13T11:27:47.883Z,23.7
2022-09-13T11:28:48.041Z,23.8
2022-09-13T11:29:48.024Z,23.8
2022-09-13T11:30:48.020Z,23.7
2022-09-13T11:31:48.078Z,23.7
2022-09-13T11:32:48.164Z,23.7
2022-09-13T11:33:48.250Z,23.8
2022-09-13T11:34:48.228Z,23.7
2022-09-13T11:35:48.260Z,23.7
2022-09-13T11:36:48.235Z,23.9
2022-09-13T11:37:48.432Z,24
2022-09-13T11:38:52.155Z,24.1
2022-09-13T11:39:48.408Z,24.2
2022-09-13T11:40:48.412Z,24.1
2022-09-13T11:41:48.440Z,24.2
2022-09-13T11:42:48.517Z,24.3
2022-09-13T11:43:48.654Z,24.6
2022-09-13T11:44:48.515Z,25
2022-09-13T11:45:48.633Z,25.4
2022-09-13T11:46:48.579Z,25.7
2022-09-13T11:47:48.651Z,25.7
2022-09-13T11:48:48.706Z,25.8
2022-09-13T11:49:48.710Z,26
2022-09-13T11:50:48.700Z,26
2022-09-13T11:51:48.830Z,26
2022-09-13T11:52:48.970Z,26.3
2022-09-13T11:53:48.927Z,26.2
2022-09-13T11:54:48.863Z,26.1
2022-09-13T11:55:48.872Z,26.2
2022-09-13T11:56:48.925Z,26.4
2022-09-13T11:57:49.052Z,26.6
2022-09-13T11:58:49.035Z,27.1
2022-09-13T11:59:49.088Z,27.3
2022-09-13T12:00:49.117Z,27.2
2022-09-13T12:01:49.246Z,27.2
2022-09-13T12:02:49.244Z,27.3
2022-09-13T12:03:49.546Z,27.4
2022-09-13T12:05:04.895Z,27.5
2022-09-13T12:05:49.325Z,27.5
2022-09-13T12:06:49.951Z,27.8
2022-09-13T12:07:49.348Z,27.8
2022-09-13T12:08:49.385Z,27.4
2022-09-13T12:09:49.861Z,27.3
2022-09-13T12:10:49.460Z,27
2022-09-13T12:11:49.531Z,26.9
2022-09-13T12:12:49.517Z,27.4
2022-09-13T12:13:49.707Z,27.9
2022-09-13T12:14:49.590Z,27.9
2022-09-13T12:15:49.603Z,27.9
2022-09-13T12:16:49.835Z,28.1
2022-09-13T12:17:50.005Z,28
2022-09-13T12:18:49.747Z,28
2022-09-13T12:19:49.771Z,27.3
2022-09-13T12:20:49.795Z,27
2022-09-13T12:21:50.065Z,26.7
2022-09-13T12:22:49.878Z,26.5
2022-09-13T12:23:51.065Z,26.6
2022-09-13T12:24:52.247Z,26.6
2022-09-13T12:25:49.978Z,26.7
2022-09-13T12:26:57.289Z,26.5
2022-09-13T12:27:56.976Z,26.2
2022-09-13T12:28:59.838Z,26.2
2022-09-13T12:29:50.147Z,26.2
2022-09-13T12:31:28.816Z,26.2
2022-09-13T12:31:50.220Z,26
2022-09-13T12:33:03.061Z,26.1
2022-09-13T12:34:05.680Z,26.2
2022-09-13T12:35:06.505Z,26.1
2022-09-13T12:35:50.525Z,26.4
2022-09-13T12:37:10.528Z,26.3
2022-09-13T12:37:50.598Z,26.7
2022-09-13T12:39:10.221Z,26.8
2022-09-13T12:40:03.549Z,27.1
2022-09-13T12:41:08.822Z,27.1
2022-09-13T12:41:50.877Z,26.5
2022-09-13T12:43:10.448Z,26.4
2022-09-13T12:43:51.040Z,26.5
2022-09-13T12:45:14.969Z,26.5
2022-09-13T12:46:07.605Z,26.6
2022-09-13T12:47:09.886Z,26.4
2022-09-13T12:47:51.294Z,26.3
2022-09-13T12:49:05.602Z,26.3
2022-09-13T12:49:58.869Z,26.5
2022-09-13T12:50:51.818Z,26.5
2022-09-13T12:51:56.473Z,26.6
2022-09-13T12:52:51.521Z,26.8
2022-09-13T12:53:56.948Z,27
2022-09-13T12:55:00.983Z,26.8
2022-09-13T12:56:04.504Z,26.7
2022-09-13T12:56:54.943Z,26.4
2022-09-13T12:57:51.752Z,26.3
2022-09-13T12:58:51.777Z,26.2
2022-09-13T12:59:52.007Z,26.6
2022-09-13T13:01:06.310Z,26.7
2022-09-13T13:01:58.322Z,26.6
2022-09-13T13:02:54.551Z,26.7
2022-09-13T13:04:23.482Z,26.6
2022-09-13T13:04:52.224Z,26.7
2022-09-13T13:05:53.238Z,26.9
2022-09-13T13:07:18.145Z,26.8
2022-09-13T13:10:26.282Z,27.5
2022-09-13T13:10:53.717Z,27.4
2022-09-13T13:12:05.170Z,27
2022-09-13T13:12:52.690Z,27.1
2022-09-13T13:14:02.731Z,27.1
2022-09-13T13:14:52.299Z,27
2022-09-13T13:15:53.248Z,26.8
2022-09-13T13:16:52.293Z,26.7
2022-09-13T13:18:10.668Z,26.8
2022-09-13T13:18:52.390Z,26.7
2022-09-13T13:20:09.993Z,26.7
2022-09-13T13:20:52.463Z,26.8
2022-09-13T13:21:58.409Z,27
2022-09-13T13:22:52.616Z,26.9
2022-09-13T13:24:01.924Z,26.8
2022-09-13T13:24:52.584Z,27.1
2022-09-13T13:26:23.842Z,27.1
2022-09-13T13:26:52.687Z,26.7
2022-09-13T13:28:16.019Z,26.6
2022-09-13T13:29:14.597Z,26.5
2022-09-13T13:30:20.289Z,26.6
2022-09-13T13:30:52.827Z,26.7